Terminal Aerodrome Forecast
Issued by NWS

Home | Current Version | Previous Version | Text Only | Print | Product List | Glossary On
Versions: 1 2 3 4 5 6 7 8 9 10 11 12
524
FTUS45 KVEF 201720
TAFDAG
TAF
KDAG 201720Z 2018/2118 32007KT P6SM SKC
     FM202000 08009KT P6SM FEW130
     FM210200 24011KT P6SM FEW130
     FM211500 VRB06KT P6SM SCT120 SCT250=

USA.gov is the U.S. government's official web portal to all federal, state and local government web resources and services.